Bookmark and Share
Track history (hours):
 

Pietro Novelli

Last reported at 2014-Apr-11 05:30 UTC. Time now 2014-Apr-17 09:42 UTC.
Position N 38°13' E 015°15'.

Length 91 m; draft 3.8 m.

Type: Other ship. MMSI: 247000300.

NotesDate/timePositionNaut miles runAvg speedWind from/ knotsBaromVisibWave heightAir tempDewpointWater temp
2014-Apr-11 05:30N 38°13' E 015°15'0 0.0
2014-Apr-10 18:19N 38°13' E 015°15'0 0.0
2014-Apr-10 17:34N 38°13' E 015°15'0 0.0
2014-Apr-10 16:33N 38°13' E 015°15'0 0.0
2014-Apr-10 15:34N 38°13' E 015°15'0 0.0
2014-Apr-10 14:33N 38°13' E 015°15'0 0.0
2014-Apr-10 13:34N 38°13' E 015°15'0 0.0
2014-Apr-10 12:34N 38°13' E 015°15'0 0.0
2014-Apr-10 11:33N 38°13' E 015°15'0 0.0
2014-Apr-10 10:33N 38°13' E 015°15'0 0.0
2014-Apr-10 09:34N 38°13' E 015°15'0 0.0
2014-Apr-10 08:34N 38°13' E 015°15'0 0.0
2014-Apr-10 07:33N 38°13' E 015°15'0 0.0
2014-Apr-10 06:33N 38°13' E 015°15'4 0.3
2014-Apr-09 17:09N 38°17' E 015°14'914.7
2014-Apr-09 16:32N 38°22' E 015°05'9 6.7
2014-Apr-09 15:07N 38°30' E 014°59'8 0.9
2014-Apr-09 06:10N 38°23' E 015°04'813.8
2014-Apr-09 05:34N 38°18' E 015°12'9 0.7
2014-Apr-08 16:27N 38°22' E 015°03'1 0.1
2014-Apr-08 06:13N 38°23' E 015°04'10 0.8
2014-Apr-07 17:22N 38°17' E 015°15'11 1.0
2014-Apr-07 06:17N 38°23' E 015°03'2 0.2
2014-Apr-06 16:33N 38°22' E 015°05'  
2014-Apr-02 08:19N 36°54' E 011°58'4 4.4
2014-Apr-02 07:24N 36°50' E 011°56'0 0.0
2014-Apr-02 06:25N 36°50' E 011°56'0 0.0
2014-Apr-02 05:18N 36°50' E 011°56'0 0.0
2014-Apr-02 04:31N 36°50' E 011°56'6 0.3
2014-Apr-01 08:33N 36°56' E 011°59'6 5.9
2014-Apr-01 07:28N 36°50' E 011°56'0 0.0
2014-Apr-01 06:24N 36°50' E 011°56'  

Dump ship's entire track history

sailing weather and tide predictions

Pietro Novelli — IOTQ — position and weather